createdAt,value
2018-04-17T00:00:21.737Z,91.80
2018-04-17T00:02:50.718Z,91.70
2018-04-17T00:05:19.670Z,91.60
2018-04-17T00:07:49.918Z,91.70
2018-04-17T00:10:18.951Z,91.70
2018-04-17T00:12:47.896Z,91.60
2018-04-17T00:15:16.836Z,91.60
2018-04-17T00:17:45.849Z,91.80
2018-04-17T00:20:15.569Z,92.00
2018-04-17T00:22:45.301Z,92.10
2018-04-17T00:25:14.299Z,92.10
2018-04-17T00:27:43.301Z,92.00
2018-04-17T00:30:12.249Z,92.00
2018-04-17T00:32:41.979Z,92.20
2018-04-17T00:35:10.959Z,92.20
2018-04-17T00:37:39.955Z,92.30
2018-04-17T00:40:08.926Z,92.40
2018-04-17T00:42:38.679Z,92.50
2018-04-17T00:45:07.730Z,92.50
2018-04-17T00:47:36.679Z,92.50
2018-04-17T00:50:05.642Z,92.60
2018-04-17T00:52:34.630Z,92.70
2018-04-17T00:55:03.575Z,92.70
2018-04-17T00:57:32.575Z,92.60
2018-04-17T01:00:01.587Z,92.70
2018-04-17T01:02:31.365Z,92.60
2018-04-17T01:05:00.378Z,92.60
2018-04-17T01:07:29.332Z,92.40
2018-04-17T01:09:58.357Z,92.40
2018-04-17T01:12:27.348Z,92.30
2018-04-17T01:14:56.527Z,92.40
2018-04-17T01:17:25.485Z,92.30
2018-04-17T01:19:54.993Z,92.20
2018-04-17T01:22:24.012Z,92.20
2018-04-17T01:24:52.959Z,92.20
2018-04-17T01:27:22.702Z,92.30
2018-04-17T01:29:51.661Z,92.30
2018-04-17T01:32:21.431Z,92.50
2018-04-17T01:34:50.412Z,92.50
2018-04-17T01:37:19.373Z,92.60
2018-04-17T01:39:48.419Z,92.70
2018-04-17T01:42:17.390Z,92.70
2018-04-17T01:44:46.381Z,92.80
2018-04-17T01:47:15.329Z,92.50
2018-04-17T01:49:44.355Z,92.40
2018-04-17T01:52:13.348Z,92.40
2018-04-17T01:54:42.286Z,92.40
2018-04-17T01:57:11.315Z,92.40
2018-04-17T01:59:40.311Z,92.40
2018-04-17T02:02:09.244Z,92.30
2018-04-17T02:04:38.193Z,92.20
2018-04-17T02:07:07.248Z,92.20
2018-04-17T02:09:36.963Z,92.30
2018-04-17T02:12:06.681Z,92.40
2018-04-17T02:14:36.451Z,92.50
2018-04-17T02:17:05.433Z,92.50
2018-04-17T02:19:34.438Z,92.50
2018-04-17T02:22:03.673Z,92.40
2018-04-17T02:24:33.427Z,92.40
2018-04-17T02:27:02.468Z,92.40
2018-04-17T02:29:32.220Z,92.20
2018-04-17T02:32:01.169Z,92.20
2018-04-17T02:34:30.113Z,92.30
2018-04-17T02:36:59.090Z,92.40
2018-04-17T02:39:28.014Z,92.70
2018-04-17T02:41:56.978Z,92.70
2018-04-17T02:44:25.968Z,92.80
2018-04-17T02:46:55.028Z,92.90
2018-04-17T02:49:24.797Z,93.00
2018-04-17T02:51:53.815Z,93.00
2018-04-17T02:54:22.786Z,92.90
2018-04-17T02:56:51.754Z,93.00
2018-04-17T02:59:20.750Z,93.00
2018-04-17T03:01:49.765Z,93.10
2018-04-17T03:04:18.726Z,93.10
2018-04-17T03:06:47.691Z,93.10
2018-04-17T03:09:17.463Z,93.30
2018-04-17T03:11:46.440Z,93.20
2018-04-17T03:14:15.443Z,93.40
2018-04-17T03:16:44.397Z,93.60
2018-04-17T03:19:13.367Z,93.70
2018-04-17T03:21:43.159Z,93.70
2018-04-17T03:24:12.217Z,93.60
2018-04-17T03:26:41.214Z,93.70
2018-04-17T03:29:10.355Z,93.70
2018-04-17T03:31:40.118Z,93.50
2018-04-17T03:34:09.123Z,93.50
2018-04-17T03:36:38.103Z,93.60
2018-04-17T03:39:07.061Z,93.70
2018-04-17T03:41:36.043Z,93.70
2018-04-17T03:44:05.812Z,93.60
2018-04-17T03:46:34.797Z,93.60
2018-04-17T03:49:03.775Z,93.30
2018-04-17T03:51:32.790Z,93.30
2018-04-17T03:54:01.774Z,93.30
2018-04-17T03:56:30.740Z,93.30
2018-04-17T03:58:59.727Z,93.40
2018-04-17T04:01:28.683Z,93.40
2018-04-17T04:03:57.650Z,93.40
2018-04-17T04:06:28.163Z,93.30
2018-04-17T04:08:57.130Z,93.30
2018-04-17T04:11:26.113Z,93.30
2018-04-17T04:13:55.072Z,93.30
2018-04-17T04:19:51.791Z,93.20
2018-04-17T04:22:38.677Z,93.30
2018-04-17T04:25:21.011Z,93.30
2018-04-17T04:27:50.055Z,93.10
2018-04-17T04:30:19.803Z,93.00
2018-04-17T04:32:48.923Z,92.90
2018-04-17T04:35:17.886Z,92.80
2018-04-17T04:37:46.896Z,92.80
2018-04-17T04:40:15.921Z,92.70
2018-04-17T04:42:44.854Z,92.70
2018-04-17T04:45:13.857Z,92.70
2018-04-17T04:47:42.866Z,92.60
2018-04-17T04:50:11.817Z,92.50
2018-04-17T04:52:40.817Z,92.30
2018-04-17T04:55:10.571Z,92.30
2018-04-17T04:57:39.592Z,92.30
2018-04-17T05:00:08.512Z,92.20
2018-04-17T05:02:38.296Z,92.10
2018-04-17T05:05:07.238Z,92.00
2018-04-17T05:07:36.240Z,91.20
2018-04-17T05:10:05.192Z,90.50
2018-04-17T05:12:34.960Z,91.10
2018-04-17T05:15:03.987Z,90.90
2018-04-17T05:17:32.961Z,90.50
2018-04-17T05:20:01.960Z,90.00
2018-04-17T05:22:30.969Z,88.90
2018-04-17T05:25:00.049Z,88.90
2018-04-17T05:27:29.149Z,88.60
2018-04-17T05:29:58.076Z,88.90
2018-04-17T05:32:27.119Z,89.20
2018-04-17T05:34:56.109Z,87.80
2018-04-17T05:37:25.051Z,86.70
2018-04-17T05:39:54.169Z,87.20
2018-04-17T05:42:23.188Z,87.10
2018-04-17T05:44:52.159Z,85.80
2018-04-17T05:47:21.160Z,85.90
2018-04-17T05:49:50.121Z,85.60
2018-04-17T05:52:19.105Z,85.70
2018-04-17T05:54:48.069Z,85.60
2018-04-17T05:57:16.995Z,85.20
2018-04-17T05:59:45.933Z,85.00
2018-04-17T06:02:14.863Z,84.70
2018-04-17T06:04:43.779Z,84.20
2018-04-17T06:07:12.665Z,83.20
2018-04-17T06:09:41.620Z,83.00
2018-04-17T06:12:10.490Z,83.50
2018-04-17T06:14:39.436Z,82.10
2018-04-17T06:17:08.400Z,82.20
2018-04-17T06:19:38.132Z,81.70
2018-04-17T06:22:07.094Z,81.70
2018-04-17T06:24:36.005Z,83.10
2018-04-17T06:27:04.886Z,82.30
2018-04-17T06:29:34.808Z,81.70
2018-04-17T06:32:04.518Z,79.40
2018-04-17T06:34:34.161Z,77.80
2018-04-17T06:37:03.047Z,77.70
2018-04-17T06:39:31.979Z,76.20
2018-04-17T06:42:00.938Z,74.50
2018-04-17T06:44:29.793Z,74.20
2018-04-17T06:46:58.813Z,74.10
2018-04-17T06:49:27.745Z,73.70
2018-04-17T06:51:56.674Z,73.30
2018-04-17T06:54:25.651Z,72.50
2018-04-17T06:56:55.362Z,74.70
2018-04-17T06:59:27.117Z,74.60
2018-04-17T07:01:56.754Z,73.50
2018-04-17T07:04:25.700Z,73.40
2018-04-17T07:06:54.630Z,75.00
2018-04-17T07:09:23.535Z,74.90
2018-04-17T07:11:52.453Z,74.40
2018-04-17T07:14:21.395Z,74.90
2018-04-17T07:16:50.320Z,74.10
2018-04-17T07:19:19.278Z,74.80
2018-04-17T07:21:48.270Z,75.40
2018-04-17T07:24:17.188Z,75.80
2018-04-17T07:26:46.111Z,74.60
2018-04-17T07:29:15.073Z,73.70
2018-04-17T07:31:44.116Z,73.10
2018-04-17T07:34:13.820Z,70.20
2018-04-17T07:36:42.709Z,70.10
2018-04-17T07:39:11.631Z,68.50
2018-04-17T07:41:40.526Z,69.40
2018-04-17T07:44:09.523Z,69.60
2018-04-17T07:46:38.491Z,69.50
2018-04-17T07:49:08.252Z,68.10
2018-04-17T07:51:37.342Z,68.10
2018-04-17T07:54:06.231Z,66.10
2018-04-17T07:56:35.184Z,65.60
2018-04-17T07:59:05.206Z,65.10
2018-04-17T08:01:34.098Z,64.40
2018-04-17T08:04:03.003Z,64.30
2018-04-17T08:06:31.923Z,62.40
2018-04-17T08:09:00.831Z,61.10
2018-04-17T08:11:29.746Z,61.30
2018-04-17T08:13:58.704Z,60.60
2018-04-17T08:16:27.657Z,61.10
2018-04-17T08:18:57.327Z,58.40
2018-04-17T08:21:26.278Z,58.40
2018-04-17T08:23:55.177Z,57.90
2018-04-17T08:26:24.097Z,56.80
2018-04-17T08:28:53.022Z,55.30
2018-04-17T08:31:21.901Z,55.50
2018-04-17T08:33:50.914Z,56.40
2018-04-17T08:36:19.886Z,55.50
2018-04-17T08:38:48.811Z,55.40
2018-04-17T08:41:17.677Z,54.80
2018-04-17T08:43:46.595Z,55.40
2018-04-17T08:46:15.550Z,54.00
2018-04-17T08:48:44.472Z,54.50
2018-04-17T08:51:13.411Z,54.40
2018-04-17T08:53:43.083Z,56.20
2018-04-17T08:56:11.993Z,56.10
2018-04-17T08:58:41.037Z,57.60
2018-04-17T09:01:09.902Z,58.70
2018-04-17T09:03:39.610Z,58.80
2018-04-17T09:06:09.275Z,58.30
2018-04-17T09:08:38.233Z,58.30
2018-04-17T09:11:07.183Z,56.50
2018-04-17T09:13:36.098Z,54.50
2018-04-17T09:16:05.815Z,55.90
2018-04-17T09:18:34.704Z,55.80
2018-04-17T09:21:03.676Z,54.80
2018-04-17T09:23:32.613Z,54.40
2018-04-17T09:26:01.573Z,56.40
2018-04-17T09:28:30.602Z,56.70
2018-04-17T09:30:59.453Z,55.20
2018-04-17T09:33:28.486Z,54.40
2018-04-17T09:35:57.641Z,54.60
2018-04-17T09:38:27.331Z,53.40
2018-04-17T09:40:56.268Z,53.40
2018-04-17T09:43:25.191Z,53.10
2018-04-17T09:45:54.098Z,53.00
2018-04-17T09:48:22.978Z,54.60
2018-04-17T09:50:51.943Z,53.90
2018-04-17T09:53:20.963Z,56.30
2018-04-17T09:55:49.869Z,58.60
2018-04-17T09:58:18.797Z,56.90
2018-04-17T10:00:53.207Z,57.20
2018-04-17T10:03:22.325Z,57.30
2018-04-17T10:05:51.239Z,56.70
2018-04-17T10:08:20.175Z,56.50
2018-04-17T10:10:49.859Z,56.10
2018-04-17T10:13:18.807Z,56.00
2018-04-17T10:15:47.689Z,55.70
2018-04-17T10:18:16.661Z,55.60
2018-04-17T10:20:46.420Z,53.00
2018-04-17T10:23:15.363Z,53.00
2018-04-17T10:25:44.296Z,52.90
2018-04-17T10:28:13.206Z,53.60
2018-04-17T10:30:42.100Z,53.40
2018-04-17T10:33:11.012Z,54.80
2018-04-17T10:35:40.702Z,56.90
2018-04-17T10:38:09.811Z,56.80
2018-04-17T10:40:38.742Z,56.60
2018-04-17T10:43:07.596Z,56.80
2018-04-17T10:45:46.160Z,57.00
2018-04-17T10:48:30.658Z,56.90
2018-04-17T10:50:59.623Z,57.10
2018-04-17T10:53:28.543Z,58.50
2018-04-17T10:55:57.497Z,57.20
2018-04-17T10:58:26.506Z,58.40
2018-04-17T11:00:55.392Z,57.50
2018-04-17T11:03:24.367Z,56.80
2018-04-17T11:05:53.537Z,57.30
2018-04-17T11:08:22.429Z,57.80
2018-04-17T11:10:52.173Z,56.80
2018-04-17T11:13:21.115Z,56.80
2018-04-17T11:15:50.775Z,53.40
2018-04-17T11:18:19.675Z,53.30
2018-04-17T11:20:48.630Z,52.90
2018-04-17T11:23:17.546Z,51.90
2018-04-17T11:25:46.471Z,51.80
2018-04-17T11:28:15.413Z,50.00
2018-04-17T11:30:44.321Z,49.20
2018-04-17T11:33:13.234Z,49.10
2018-04-17T11:35:42.185Z,49.80
2018-04-17T11:38:11.255Z,49.80
2018-04-17T11:40:40.254Z,50.90
2018-04-17T11:43:09.217Z,50.40
2018-04-17T11:45:38.139Z,49.70
2018-04-17T11:48:07.141Z,50.10
2018-04-17T11:50:36.065Z,49.20
2018-04-17T11:53:04.982Z,49.40
2018-04-17T11:55:33.907Z,49.90
2018-04-17T11:58:02.878Z,48.70
2018-04-17T12:00:32.579Z,45.70
2018-04-17T12:03:01.500Z,45.60
2018-04-17T12:05:30.427Z,46.40
2018-04-17T12:07:59.356Z,45.50
2018-04-17T12:10:29.104Z,45.90
2018-04-17T12:12:58.214Z,46.00
2018-04-17T12:18:16.523Z,47.10
2018-04-17T12:20:45.427Z,47.80
2018-04-17T12:23:15.143Z,45.40
2018-04-17T12:25:44.090Z,45.30
2018-04-17T12:28:12.998Z,45.40
2018-04-17T12:30:41.941Z,44.40
2018-04-17T12:33:10.892Z,44.30
2018-04-17T12:35:39.762Z,43.50
2018-04-17T12:38:08.687Z,43.70
2018-04-17T12:40:38.530Z,43.80
2018-04-17T12:43:07.452Z,43.70
2018-04-17T12:45:36.382Z,44.50
2018-04-17T12:48:05.373Z,44.60
2018-04-17T12:50:34.262Z,45.30
2018-04-17T12:53:03.219Z,46.40
2018-04-17T12:55:32.164Z,45.30
2018-04-17T12:58:01.068Z,45.10
2018-04-17T13:00:29.977Z,45.90
2018-04-17T13:02:58.958Z,47.80
2018-04-17T13:05:27.911Z,47.60
2018-04-17T13:07:56.857Z,48.50
2018-04-17T13:10:25.823Z,47.60
2018-04-17T13:12:54.793Z,47.90
2018-04-17T13:15:23.677Z,48.30
2018-04-17T13:17:52.741Z,48.00
2018-04-17T13:20:21.729Z,49.10
2018-04-17T13:22:50.677Z,48.90
2018-04-17T13:25:19.627Z,48.30
2018-04-17T13:27:48.539Z,48.50
2018-04-17T13:30:18.241Z,48.40
2018-04-17T13:32:47.967Z,49.20
2018-04-17T13:35:16.872Z,49.20
2018-04-17T13:37:45.793Z,48.90
2018-04-17T13:40:14.813Z,49.90
2018-04-17T13:42:44.672Z,49.40
2018-04-17T13:45:13.601Z,49.30
2018-04-17T13:47:42.538Z,49.10
2018-04-17T13:50:11.447Z,48.60
2018-04-17T13:52:40.361Z,48.40
2018-04-17T13:55:09.382Z,48.90
2018-04-17T14:00:43.166Z,50.10
2018-04-17T14:03:12.068Z,49.30
2018-04-17T14:05:41.035Z,49.30
2018-04-17T14:08:10.036Z,49.70
2018-04-17T14:10:38.974Z,49.30
2018-04-17T14:13:08.645Z,48.40
2018-04-17T14:15:37.615Z,48.30
2018-04-17T14:18:06.537Z,49.10
2018-04-17T14:20:35.494Z,49.10
2018-04-17T14:23:04.614Z,48.10
2018-04-17T14:25:35.021Z,48.20
2018-04-17T14:28:04.290Z,47.00
2018-04-17T14:30:33.997Z,47.70
2018-04-17T14:33:03.652Z,48.40
2018-04-17T14:35:32.644Z,48.30
2018-04-17T14:38:01.625Z,48.70
2018-04-17T14:40:30.529Z,48.60
2018-04-17T14:42:59.575Z,48.30
2018-04-17T14:45:29.224Z,48.50
2018-04-17T14:47:58.221Z,48.40
2018-04-17T14:50:27.210Z,47.90
2018-04-17T14:52:58.973Z,48.50
2018-04-17T14:55:27.976Z,48.50
2018-04-17T14:57:56.953Z,48.20
2018-04-17T15:00:25.895Z,48.20
2018-04-17T15:02:55.644Z,48.00
2018-04-17T15:05:24.549Z,48.00
2018-04-17T15:07:53.439Z,48.10
2018-04-17T15:10:22.401Z,47.60
2018-04-17T15:12:51.326Z,48.10
2018-04-17T15:15:20.268Z,48.70
2018-04-17T15:17:49.997Z,48.70
2018-04-17T15:20:18.895Z,48.60
2018-04-17T15:22:47.838Z,48.70
2018-04-17T15:25:16.913Z,49.80
2018-04-17T15:27:45.839Z,50.50
2018-04-17T15:30:15.499Z,50.00
2018-04-17T15:32:44.441Z,49.90
2018-04-17T15:35:14.104Z,49.30
2018-04-17T15:37:43.078Z,50.00
2018-04-17T15:40:12.045Z,49.40
2018-04-17T15:42:41.696Z,50.10
2018-04-17T15:45:10.785Z,50.10
2018-04-17T15:47:39.797Z,50.10
2018-04-17T15:50:08.741Z,50.00
2018-04-17T15:52:37.655Z,49.70
2018-04-17T15:55:06.632Z,50.00
2018-04-17T15:57:35.539Z,50.10
2018-04-17T16:00:05.258Z,51.00
2018-04-17T16:02:34.242Z,50.60
2018-04-17T16:05:03.127Z,51.00
2018-04-17T16:07:32.057Z,51.10
2018-04-17T16:10:01.017Z,51.40
2018-04-17T16:12:29.949Z,51.70
2018-04-17T16:14:58.887Z,52.20
2018-04-17T16:17:27.811Z,51.90
2018-04-17T16:19:56.756Z,52.20
2018-04-17T16:22:25.676Z,52.80
2018-04-17T16:24:54.619Z,53.10
2018-04-17T16:27:24.309Z,52.90
2018-04-17T16:29:53.245Z,52.90
2018-04-17T16:32:22.253Z,52.80
2018-04-17T16:34:51.169Z,53.00
2018-04-17T16:37:20.089Z,53.60
2018-04-17T16:39:49.769Z,54.00
2018-04-17T16:42:18.720Z,53.90
2018-04-17T16:44:47.644Z,53.40
2018-04-17T16:47:16.757Z,53.40
2018-04-17T16:49:45.729Z,53.70
2018-04-17T16:52:14.696Z,54.10
2018-04-17T16:54:43.643Z,54.50
2018-04-17T16:57:12.607Z,54.50
2018-04-17T16:59:41.575Z,54.80
2018-04-17T17:02:11.339Z,55.80
2018-04-17T17:04:41.011Z,55.80
2018-04-17T17:07:09.950Z,55.80
2018-04-17T17:09:38.961Z,55.70
2018-04-17T17:12:07.856Z,56.20
2018-04-17T17:14:36.824Z,56.20
2018-04-17T17:17:06.587Z,56.60
2018-04-17T17:19:35.557Z,56.60
2018-04-17T17:22:04.449Z,56.80
2018-04-17T17:24:33.416Z,56.80
2018-04-17T17:27:02.404Z,57.00
2018-04-17T17:29:31.318Z,57.10
2018-04-17T17:32:00.234Z,57.40
2018-04-17T17:34:29.151Z,57.40
2018-04-17T17:36:58.093Z,57.80
2018-04-17T17:39:27.155Z,58.10
2018-04-17T17:41:56.066Z,58.00
2018-04-17T17:47:11.388Z,58.80
2018-04-17T17:49:40.415Z,59.60
2018-04-17T17:52:09.355Z,59.30
2018-04-17T17:54:38.342Z,59.90
2018-04-17T17:57:07.273Z,59.80
2018-04-17T17:59:36.222Z,60.30
2018-04-17T18:02:05.161Z,59.40
2018-04-17T18:04:34.149Z,59.50
2018-04-17T18:07:03.088Z,59.70
2018-04-17T18:09:32.000Z,60.20
2018-04-17T18:12:01.040Z,60.30
2018-04-17T18:14:29.998Z,60.80
2018-04-17T18:16:58.985Z,61.40
2018-04-17T18:19:27.921Z,60.90
2018-04-17T18:22:06.300Z,61.70
2018-04-17T18:24:35.271Z,61.80
2018-04-17T18:27:04.190Z,61.70
2018-04-17T18:29:33.142Z,62.10
2018-04-17T18:32:02.129Z,62.20
2018-04-17T18:34:31.093Z,62.70
2018-04-17T18:37:00.077Z,62.30
2018-04-17T18:39:29.881Z,62.90
2018-04-17T18:41:58.838Z,62.70
2018-04-17T18:44:27.738Z,62.70
2018-04-17T18:46:56.747Z,62.90
2018-04-17T18:49:25.704Z,63.00
2018-04-17T18:51:54.739Z,63.50
2018-04-17T18:54:23.717Z,63.90
2018-04-17T18:56:52.643Z,63.80
2018-04-17T18:59:21.568Z,64.40
2018-04-17T19:01:50.530Z,64.80
2018-04-17T19:04:19.451Z,65.50
2018-04-17T19:06:48.415Z,65.30
2018-04-17T19:09:17.371Z,65.50
2018-04-17T19:11:46.347Z,65.80
2018-04-17T19:14:15.282Z,65.70
2018-04-17T19:16:44.998Z,66.30
2018-04-17T19:19:14.716Z,66.30
2018-04-17T19:21:44.443Z,65.90
2018-04-17T19:24:13.437Z,65.80
2018-04-17T19:26:42.378Z,66.00
2018-04-17T19:29:11.321Z,66.50
2018-04-17T19:31:40.223Z,65.50
2018-04-17T19:34:09.149Z,65.20
2018-04-17T19:36:38.143Z,65.60
2018-04-17T19:39:07.101Z,66.20
2018-04-17T19:41:36.052Z,66.30
2018-04-17T19:44:05.908Z,67.20
2018-04-17T19:46:34.814Z,67.10
2018-04-17T19:49:03.775Z,67.60
2018-04-17T19:51:32.719Z,67.00
2018-04-17T19:54:01.825Z,66.70
2018-04-17T19:56:30.761Z,66.80
2018-04-17T19:58:59.710Z,66.40
2018-04-17T20:01:28.647Z,66.70
2018-04-17T20:03:57.562Z,67.30
2018-04-17T20:06:26.533Z,68.20
2018-04-17T20:08:55.506Z,69.00
2018-04-17T20:11:24.429Z,69.10
2018-04-17T20:13:53.401Z,67.80
2018-04-17T20:16:22.337Z,68.10
2018-04-17T20:18:51.252Z,67.90
2018-04-17T20:21:20.975Z,70.00
2018-04-17T20:23:49.936Z,70.00
2018-04-17T20:26:19.710Z,68.90
2018-04-17T20:28:48.729Z,68.90
2018-04-17T20:31:17.669Z,69.10
2018-04-17T20:33:46.571Z,68.80
2018-04-17T20:36:15.575Z,69.00
2018-04-17T20:38:45.269Z,68.90
2018-04-17T20:41:14.167Z,68.90
2018-04-17T20:43:43.181Z,69.00
2018-04-17T20:46:12.129Z,69.00
2018-04-17T20:48:41.847Z,69.20
2018-04-17T20:51:10.944Z,69.10
2018-04-17T20:53:39.843Z,69.50
2018-04-17T20:56:08.938Z,70.50
2018-04-17T20:58:37.959Z,70.20
2018-04-17T21:01:06.890Z,69.60
2018-04-17T21:03:36.614Z,70.10
2018-04-17T21:06:05.543Z,70.10
2018-04-17T21:08:34.488Z,70.80
2018-04-17T21:11:04.250Z,69.90
2018-04-17T21:13:33.254Z,69.90
2018-04-17T21:16:02.227Z,69.90
2018-04-17T21:18:31.217Z,70.00
2018-04-17T21:21:00.201Z,70.00
2018-04-17T21:23:29.115Z,70.60
2018-04-17T21:25:58.068Z,70.90
2018-04-17T21:28:27.007Z,70.90
2018-04-17T21:30:56.024Z,71.00
2018-04-17T21:33:25.785Z,71.80
2018-04-17T21:35:54.747Z,71.80
2018-04-17T21:38:23.655Z,71.40
2018-04-17T21:40:52.557Z,71.60
2018-04-17T21:43:21.537Z,71.70
2018-04-17T21:45:50.465Z,72.50
2018-04-17T21:48:19.439Z,72.80
2018-04-17T21:50:48.429Z,72.40
2018-04-17T21:53:17.321Z,72.60
2018-04-17T21:55:46.289Z,73.60
2018-04-17T21:58:15.741Z,74.00
2018-04-17T22:00:44.614Z,74.00
2018-04-17T22:03:13.600Z,73.90
2018-04-17T22:05:42.602Z,73.30
2018-04-17T22:08:11.567Z,73.80
2018-04-17T22:10:40.488Z,73.90
2018-04-17T22:13:09.466Z,74.30
2018-04-17T22:15:38.356Z,74.40
2018-04-17T22:18:07.243Z,74.10
2018-04-17T22:20:36.233Z,74.30
2018-04-17T22:23:05.176Z,74.50
2018-04-17T22:25:34.096Z,74.50
2018-04-17T22:28:03.019Z,74.90
2018-04-17T22:30:31.937Z,74.60
2018-04-17T22:33:00.870Z,75.00
2018-04-17T22:35:29.879Z,74.70
2018-04-17T22:37:58.869Z,74.60
2018-04-17T22:40:27.852Z,74.50
2018-04-17T22:42:56.833Z,74.70
2018-04-17T22:45:26.055Z,74.70
2018-04-17T22:47:55.748Z,74.70
2018-04-17T22:50:24.742Z,75.00
2018-04-17T22:52:53.685Z,75.80
2018-04-17T22:55:22.648Z,75.50
2018-04-17T22:57:51.648Z,76.00
2018-04-17T23:00:20.687Z,75.90
2018-04-17T23:02:50.433Z,75.70
2018-04-17T23:05:19.460Z,75.60
2018-04-17T23:07:48.398Z,76.00
2018-04-17T23:10:17.317Z,76.20
2018-04-17T23:12:46.313Z,76.10
2018-04-17T23:15:15.237Z,76.30
2018-04-17T23:17:44.185Z,76.70
2018-04-17T23:20:13.177Z,76.90
2018-04-17T23:22:42.113Z,76.70
2018-04-17T23:25:11.071Z,76.40
2018-04-17T23:27:40.093Z,76.90
2018-04-17T23:30:08.999Z,76.30
2018-04-17T23:32:38.693Z,76.30
2018-04-17T23:35:07.706Z,76.30
2018-04-17T23:37:37.370Z,76.40
2018-04-17T23:40:06.297Z,76.30
2018-04-17T23:42:35.216Z,76.60
2018-04-17T23:45:04.118Z,77.00
2018-04-17T23:47:33.045Z,76.90
2018-04-17T23:50:02.010Z,77.20
2018-04-17T23:52:30.951Z,77.40
2018-04-17T23:54:59.873Z,77.40
2018-04-17T23:57:28.831Z,77.50
2018-04-17T23:59:57.771Z,77.60
